createdAt,value
2024-03-05T00:01:42.187Z,1.30
2024-03-05T00:04:10.178Z,4.65
2024-03-05T00:06:38.972Z,2.10
2024-03-05T00:09:06.691Z,1.52
2024-03-05T00:11:34.578Z,2.50
2024-03-05T00:14:02.282Z,3.80
2024-03-05T00:16:29.816Z,2.00
2024-03-05T00:18:57.596Z,8.43
2024-03-05T00:21:25.164Z,4.03
2024-03-05T00:23:52.639Z,3.20
2024-03-05T00:26:22.655Z,2.55
2024-03-05T00:28:50.659Z,2.05
2024-03-05T00:31:18.456Z,2.57
2024-03-05T00:33:47.763Z,3.50
2024-03-05T00:36:15.334Z,2.33
2024-03-05T00:38:43.251Z,6.80
2024-03-05T00:41:10.965Z,3.45
2024-03-05T00:43:38.570Z,1.80
2024-03-05T00:46:07.156Z,1.40
2024-03-05T00:48:35.120Z,1.48
2024-03-05T00:51:03.557Z,2.95
2024-03-05T00:53:31.462Z,3.40
2024-03-05T00:55:59.266Z,1.47
2024-03-05T00:58:27.424Z,2.03
2024-03-05T01:00:55.486Z,1.30
2024-03-05T01:03:23.262Z,1.40
2024-03-05T01:05:50.889Z,3.00
2024-03-05T01:08:18.430Z,1.17
2024-03-05T01:10:47.086Z,1.95
2024-03-05T01:13:15.527Z,1.73
2024-03-05T01:15:43.246Z,2.50
2024-03-05T01:18:11.055Z,2.30
2024-03-05T01:20:42.576Z,2.73
2024-03-05T01:23:13.169Z,1.35
2024-03-05T01:25:40.963Z,7.82
2024-03-05T01:28:08.990Z,2.17
2024-03-05T01:30:36.547Z,4.03
2024-03-05T01:33:06.853Z,2.33
2024-03-05T01:35:34.547Z,2.30
2024-03-05T01:38:02.046Z,1.10
2024-03-05T01:40:29.827Z,4.57
2024-03-05T01:42:58.878Z,1.50
2024-03-05T01:45:27.025Z,1.47
2024-03-05T01:47:54.940Z,2.03
2024-03-05T01:50:23.759Z,1.40
2024-03-05T01:52:51.391Z,7.68
2024-03-05T01:55:19.340Z,1.92
2024-03-05T01:57:48.707Z,4.67
2024-03-05T02:00:17.207Z,1.40
2024-03-05T02:02:45.496Z,1.60
2024-03-05T02:05:13.834Z,1.35
2024-03-05T02:07:41.460Z,1.30
2024-03-05T02:10:10.304Z,1.43
2024-03-05T02:12:38.145Z,4.78
2024-03-05T02:15:06.591Z,3.67
2024-03-05T02:17:34.500Z,1.73
2024-03-05T02:20:02.358Z,1.95
2024-03-05T02:22:29.870Z,3.37
2024-03-05T02:25:00.123Z,1.70
2024-03-05T02:27:34.150Z,1.92
2024-03-05T02:30:04.056Z,23.23
2024-03-05T02:32:31.991Z,1.80
2024-03-05T02:34:59.840Z,3.13
2024-03-05T02:37:27.891Z,6.37
2024-03-05T02:39:55.292Z,1.98
2024-03-05T02:42:22.733Z,1.62
2024-03-05T02:44:50.447Z,1.62
2024-03-05T02:47:17.941Z,2.57
2024-03-05T02:49:45.421Z,2.37
2024-03-05T02:52:13.311Z,3.95
2024-03-05T02:54:40.771Z,1.48
2024-03-05T02:57:08.510Z,1.52
2024-03-05T02:59:37.281Z,2.60
2024-03-05T03:02:04.919Z,3.58
2024-03-05T03:04:32.380Z,2.33
2024-03-05T03:07:00.154Z,1.83
2024-03-05T03:09:28.121Z,2.03
2024-03-05T03:11:56.229Z,1.97
2024-03-05T03:14:24.032Z,1.58
2024-03-05T03:16:51.575Z,4.25
2024-03-05T03:19:19.081Z,5.85
2024-03-05T03:21:47.061Z,2.55
2024-03-05T03:24:14.660Z,2.03
2024-03-05T03:26:42.148Z,1.73
2024-03-05T03:29:12.625Z,2.53
2024-03-05T03:31:49.218Z,2.25
2024-03-05T03:34:17.427Z,2.55
2024-03-05T03:36:45.473Z,2.67
2024-03-05T03:39:12.918Z,7.12
2024-03-05T03:41:40.786Z,1.80
2024-03-05T03:44:08.618Z,1.85
2024-03-05T03:46:36.165Z,1.52
2024-03-05T03:49:05.944Z,1.30
2024-03-05T03:51:34.046Z,3.65
2024-03-05T03:54:01.421Z,2.67
2024-03-05T03:56:29.307Z,2.10
2024-03-05T03:58:57.292Z,3.55
2024-03-05T04:01:25.337Z,2.40
2024-03-05T04:03:53.291Z,2.60
2024-03-05T04:06:20.731Z,1.85
2024-03-05T04:08:48.244Z,3.40
2024-03-05T04:11:16.095Z,1.87
2024-03-05T04:13:44.979Z,1.37
2024-03-05T04:16:13.575Z,1.85
2024-03-05T04:18:41.384Z,3.70
2024-03-05T04:21:08.836Z,1.35
2024-03-05T04:23:36.293Z,1.20
2024-03-05T04:26:09.646Z,3.83
2024-03-05T04:28:49.960Z,1.33
2024-03-05T04:31:18.816Z,1.95
2024-03-05T04:33:49.142Z,1.87
2024-03-05T04:36:17.092Z,2.00
2024-03-05T04:38:45.231Z,1.67
2024-03-05T04:41:14.255Z,2.62
2024-03-05T04:43:44.575Z,2.20
2024-03-05T04:46:12.512Z,1.25
2024-03-05T04:48:40.040Z,1.58
2024-03-05T04:51:10.904Z,2.00
2024-03-05T04:53:39.513Z,11.10
2024-03-05T04:56:07.776Z,1.55
2024-03-05T04:58:36.714Z,2.72
2024-03-05T05:01:05.242Z,2.15
2024-03-05T05:03:32.687Z,1.63
2024-03-05T05:06:01.420Z,2.40
2024-03-05T05:08:29.334Z,3.80
2024-03-05T05:10:56.887Z,2.47
2024-03-05T05:13:24.390Z,1.85
2024-03-05T05:15:52.144Z,3.00
2024-03-05T05:18:20.207Z,4.35
2024-03-05T05:20:51.890Z,2.15
2024-03-05T05:23:19.534Z,2.90
2024-03-05T05:25:47.031Z,1.73
2024-03-05T05:28:14.836Z,1.97
2024-03-05T05:30:42.596Z,1.50
2024-03-05T05:33:10.180Z,1.98
2024-03-05T05:35:38.582Z,2.15
2024-03-05T05:38:10.183Z,1.58
2024-03-05T05:40:37.675Z,2.30
2024-03-05T05:43:05.290Z,2.80
2024-03-05T05:45:32.994Z,2.90
2024-03-05T05:48:01.029Z,1.58
2024-03-05T05:50:32.567Z,1.08
2024-03-05T05:53:02.860Z,3.70
2024-03-05T05:55:30.499Z,1.40
2024-03-05T05:57:58.444Z,6.15
2024-03-05T06:00:34.928Z,3.17
2024-03-05T06:03:09.918Z,1.77
2024-03-05T06:05:39.217Z,2.17
2024-03-05T06:08:13.484Z,3.47
2024-03-05T06:10:44.512Z,3.20
2024-03-05T06:13:12.535Z,1.50
2024-03-05T06:15:40.181Z,10.98
2024-03-05T06:18:07.907Z,4.67
2024-03-05T06:20:35.799Z,3.40
2024-03-05T06:23:04.284Z,7.25
2024-03-05T06:25:32.093Z,4.60
2024-03-05T06:28:00.435Z,2.17
2024-03-05T06:30:27.967Z,3.40
2024-03-05T06:32:55.793Z,1.52
2024-03-05T06:35:25.028Z,5.45
2024-03-05T06:37:55.036Z,2.28
2024-03-05T06:40:25.255Z,4.57
2024-03-05T06:42:54.006Z,1.67
2024-03-05T06:45:29.303Z,2.70
2024-03-05T06:48:10.983Z,2.28
2024-03-05T06:50:44.238Z,1.70
2024-03-05T06:53:31.079Z,2.00
2024-03-05T06:56:17.981Z,2.27
2024-03-05T06:58:47.176Z,5.05
2024-03-05T07:01:16.140Z,4.25
2024-03-05T07:03:44.318Z,2.70
2024-03-05T07:06:14.273Z,1.98
2024-03-05T07:08:44.118Z,2.77
2024-03-05T07:11:12.858Z,2.37
2024-03-05T07:13:44.864Z,1.65
2024-03-05T07:16:17.736Z,3.05
2024-03-05T07:18:56.056Z,2.12
2024-03-05T07:21:25.651Z,2.60
2024-03-05T07:23:55.249Z,3.05
2024-03-05T07:26:24.539Z,2.40
2024-03-05T07:28:53.108Z,2.25
2024-03-05T07:31:20.915Z,5.70
2024-03-05T07:33:52.771Z,7.53
2024-03-05T07:36:22.061Z,3.33
2024-03-05T07:38:49.812Z,2.67
2024-03-05T07:41:26.552Z,1.95
2024-03-05T07:44:02.250Z,3.50
2024-03-05T07:46:30.990Z,4.40
2024-03-05T07:48:58.766Z,2.72
2024-03-05T07:51:40.485Z,3.55
2024-03-05T07:54:12.421Z,1.73
2024-03-05T07:56:40.782Z,3.22
2024-03-05T07:59:08.302Z,2.47
2024-03-05T08:01:35.818Z,1.70
2024-03-05T08:04:05.260Z,2.83
2024-03-05T08:06:32.898Z,4.45
2024-03-05T08:09:00.402Z,2.65
2024-03-05T08:11:28.297Z,2.60
2024-03-05T08:13:55.867Z,7.00
2024-03-05T08:16:23.532Z,1.90
2024-03-05T08:18:51.716Z,2.37
2024-03-05T08:21:19.146Z,6.37
2024-03-05T08:23:46.608Z,2.43
2024-03-05T08:26:15.176Z,1.55
2024-03-05T08:28:42.713Z,1.95
2024-03-05T08:31:11.506Z,2.22
2024-03-05T08:33:39.333Z,1.92
2024-03-05T08:36:07.952Z,3.77
2024-03-05T08:38:36.626Z,2.35
2024-03-05T08:41:04.584Z,1.62
2024-03-05T08:43:32.579Z,3.28
2024-03-05T08:46:00.132Z,2.33
2024-03-05T08:48:29.756Z,2.23
2024-03-05T08:50:59.724Z,2.45
2024-03-05T08:53:27.312Z,2.85
2024-03-05T08:55:55.144Z,6.47
2024-03-05T08:58:22.721Z,2.92
2024-03-05T09:00:51.851Z,3.13
2024-03-05T09:03:19.663Z,4.93
2024-03-05T09:05:48.433Z,3.92
2024-03-05T09:08:16.090Z,3.70
2024-03-05T09:10:45.946Z,3.12
2024-03-05T09:13:13.599Z,2.67
2024-03-05T09:15:44.054Z,2.92
2024-03-05T09:18:15.666Z,2.90
2024-03-05T09:20:44.283Z,3.45
2024-03-05T09:23:12.426Z,6.18
2024-03-05T09:25:43.091Z,3.53
2024-03-05T09:28:11.681Z,2.17
2024-03-05T09:30:39.503Z,2.67
2024-03-05T09:33:10.662Z,2.10
2024-03-05T09:35:40.111Z,3.95
2024-03-05T09:38:08.549Z,3.23
2024-03-05T09:40:36.360Z,2.53
2024-03-05T09:43:05.263Z,3.28
2024-03-05T09:45:37.550Z,1.75
2024-03-05T09:48:09.912Z,2.67
2024-03-05T09:50:38.286Z,2.60
2024-03-05T09:53:06.525Z,2.53
2024-03-05T09:55:34.722Z,2.83
2024-03-05T09:58:05.492Z,3.50
2024-03-05T10:00:35.750Z,3.03
2024-03-05T10:03:04.626Z,2.80
2024-03-05T10:05:32.089Z,2.25
2024-03-05T10:07:59.638Z,3.60
2024-03-05T10:10:32.094Z,3.12
2024-03-05T10:13:02.579Z,2.60
2024-03-05T10:15:30.452Z,2.83
2024-03-05T10:17:58.627Z,3.58
2024-03-05T10:20:29.574Z,4.37
2024-03-05T10:23:02.430Z,2.95
2024-03-05T10:25:31.377Z,2.53
2024-03-05T10:28:00.759Z,3.40
2024-03-05T10:30:33.934Z,3.03
2024-03-05T10:33:03.800Z,2.90
2024-03-05T10:35:36.015Z,2.30
2024-03-05T10:38:07.141Z,2.42
2024-03-05T10:40:38.665Z,2.90
2024-03-05T10:43:08.053Z,2.95
2024-03-05T10:45:42.152Z,3.15
2024-03-05T10:48:11.952Z,2.60
2024-03-05T10:50:41.672Z,2.55
2024-03-05T10:53:11.449Z,3.77
2024-03-05T10:55:39.783Z,3.00
2024-03-05T11:00:49.366Z,2.97
2024-03-05T11:03:20.119Z,3.20
2024-03-05T11:05:53.262Z,2.70
2024-03-05T11:08:22.413Z,2.78
2024-03-05T11:10:58.543Z,3.25
2024-03-05T11:13:27.576Z,3.65
2024-03-05T11:15:56.247Z,3.20
2024-03-05T11:18:34.719Z,3.27
2024-03-05T11:21:11.110Z,2.75
2024-03-05T11:23:43.280Z,4.15
2024-03-05T11:26:24.159Z,3.47
2024-03-05T11:29:18.851Z,3.85
2024-03-05T11:31:47.734Z,2.93
2024-03-05T11:34:19.113Z,4.18
2024-03-05T11:37:33.948Z,3.85
2024-03-05T11:40:11.667Z,2.90
2024-03-05T11:42:45.583Z,3.60
2024-03-05T11:45:52.921Z,2.43
2024-03-05T11:48:21.835Z,3.60
2024-03-05T11:50:53.414Z,3.20
2024-03-05T11:53:21.205Z,4.03
2024-03-05T11:55:53.444Z,2.87
2024-03-05T11:58:25.030Z,3.10
2024-03-05T12:01:02.085Z,2.58
2024-03-05T12:03:33.179Z,4.20
2024-03-05T12:06:01.523Z,2.62
2024-03-05T12:08:29.532Z,3.25
2024-03-05T12:11:02.705Z,3.63
2024-03-05T12:13:32.440Z,3.90
2024-03-05T12:16:15.212Z,2.62
2024-03-05T12:18:43.362Z,2.72
2024-03-05T12:21:11.804Z,4.85
2024-03-05T12:23:43.328Z,3.33
2024-03-05T12:26:13.017Z,4.07
2024-03-05T12:28:41.532Z,3.30
2024-03-05T12:31:10.442Z,3.05
2024-03-05T12:33:38.404Z,3.75
2024-03-05T12:36:06.671Z,3.10
2024-03-05T12:38:34.235Z,4.47
2024-03-05T12:41:02.367Z,3.78
2024-03-05T12:43:30.645Z,4.07
2024-03-05T12:46:04.069Z,2.80
2024-03-05T12:48:38.384Z,3.20
2024-03-05T12:51:06.255Z,3.10
2024-03-05T12:53:34.344Z,5.37
2024-03-05T12:56:03.325Z,5.62
2024-03-05T12:58:44.004Z,3.20
2024-03-05T13:01:16.242Z,3.47
2024-03-05T13:03:44.724Z,4.22
2024-03-05T13:06:15.451Z,3.72
2024-03-05T13:08:48.752Z,3.28
2024-03-05T13:11:17.097Z,2.78
2024-03-05T13:13:44.644Z,4.20
2024-03-05T13:16:12.446Z,3.55
2024-03-05T13:18:40.303Z,3.08
2024-03-05T13:21:07.843Z,2.58
2024-03-05T13:23:36.074Z,3.22
2024-03-05T13:26:04.014Z,3.13
2024-03-05T13:28:31.761Z,4.18
2024-03-05T13:31:01.707Z,3.90
2024-03-05T13:33:29.783Z,3.20
2024-03-05T13:35:57.449Z,2.95
2024-03-05T13:38:25.450Z,3.17
2024-03-05T13:40:53.807Z,3.05
2024-03-05T13:43:25.619Z,3.28
2024-03-05T13:45:53.782Z,4.20
2024-03-05T13:48:21.270Z,2.47
2024-03-05T13:50:54.865Z,3.93
2024-03-05T13:53:23.295Z,4.15
2024-03-05T13:55:57.313Z,2.75
2024-03-05T13:58:25.517Z,7.37
2024-03-05T14:00:53.531Z,3.85
2024-03-05T14:03:21.459Z,4.13
2024-03-05T14:05:48.990Z,2.80
2024-03-05T14:08:18.105Z,3.30
2024-03-05T14:10:45.885Z,4.97
2024-03-05T14:13:18.979Z,2.87
2024-03-05T14:15:49.930Z,4.70
2024-03-05T14:18:17.866Z,4.12
2024-03-05T14:20:45.673Z,3.92
2024-03-05T14:23:16.134Z,2.70
2024-03-05T14:25:45.058Z,2.78
2024-03-05T14:28:13.882Z,3.87
2024-03-05T14:30:41.763Z,3.30
2024-03-05T14:33:10.545Z,3.22
2024-03-05T14:35:38.678Z,2.87
2024-03-05T14:38:06.536Z,4.97
2024-03-05T14:40:34.119Z,4.20
2024-03-05T14:43:05.108Z,3.20
2024-03-05T14:45:32.734Z,4.55
2024-03-05T14:48:00.650Z,5.22
2024-03-05T14:50:28.555Z,4.07
2024-03-05T14:52:57.131Z,5.50
2024-03-05T14:55:26.613Z,4.00
2024-03-05T14:57:55.393Z,4.37
2024-03-05T15:00:25.796Z,2.97
2024-03-05T15:02:53.977Z,3.15
2024-03-05T15:05:23.352Z,2.67
2024-03-05T15:07:51.351Z,3.75
2024-03-05T15:10:20.439Z,4.32
2024-03-05T15:12:52.331Z,2.62
2024-03-05T15:15:20.812Z,2.92
2024-03-05T15:17:51.671Z,2.87
2024-03-05T15:20:19.740Z,3.85
2024-03-05T15:22:50.035Z,3.03
2024-03-05T15:25:21.652Z,2.45
2024-03-05T15:28:00.873Z,3.62
2024-03-05T15:30:34.922Z,2.50
2024-03-05T15:33:03.644Z,2.12
2024-03-05T15:35:31.962Z,2.35
2024-03-05T15:38:00.195Z,3.85
2024-03-05T15:40:28.317Z,2.42
2024-03-05T15:42:57.663Z,6.83
2024-03-05T15:45:29.788Z,2.87
2024-03-05T15:47:59.715Z,2.12
2024-03-05T15:50:31.084Z,3.03
2024-03-05T15:53:05.038Z,2.05
2024-03-05T15:55:39.735Z,3.07
2024-03-05T15:58:07.843Z,2.25
2024-03-05T16:00:37.106Z,2.58
2024-03-05T16:03:09.503Z,2.53
2024-03-05T16:05:47.299Z,2.53
2024-03-05T16:08:25.459Z,3.83
2024-03-05T16:10:54.852Z,2.30
2024-03-05T16:13:23.193Z,2.60
2024-03-05T16:15:51.666Z,2.12
2024-03-05T16:18:20.292Z,2.55
2024-03-05T16:20:49.068Z,3.20
2024-03-05T16:23:17.114Z,3.20
2024-03-05T16:25:44.820Z,3.40
2024-03-05T16:28:15.016Z,3.08
2024-03-05T16:30:43.662Z,2.55
2024-03-05T16:33:11.931Z,2.97
2024-03-05T16:35:39.502Z,3.58
2024-03-05T16:38:08.547Z,4.10
2024-03-05T16:40:37.701Z,3.62
2024-03-05T16:43:06.796Z,4.28
2024-03-05T16:45:36.546Z,4.50
2024-03-05T16:48:09.842Z,8.88
2024-03-05T16:50:40.280Z,5.57
2024-03-05T16:53:10.041Z,5.47
2024-03-05T16:55:38.942Z,3.92
2024-03-05T16:58:12.194Z,4.70
2024-03-05T17:00:48.094Z,4.68
2024-03-05T17:03:16.252Z,6.47
2024-03-05T17:05:47.761Z,2.72
2024-03-05T17:08:20.527Z,3.50
2024-03-05T17:10:49.408Z,4.17
2024-03-05T17:13:22.673Z,2.60
2024-03-05T17:16:05.020Z,3.17
2024-03-05T17:18:33.338Z,3.28
2024-03-05T17:21:01.480Z,6.65
2024-03-05T17:23:30.513Z,3.33
2024-03-05T17:25:58.858Z,2.47
2024-03-05T17:28:28.142Z,3.58
2024-03-05T17:30:57.471Z,4.62
2024-03-05T17:33:26.172Z,4.03
2024-03-05T17:35:58.182Z,4.10
2024-03-05T17:38:30.270Z,3.30
2024-03-05T17:41:01.144Z,2.97
2024-03-05T17:43:28.937Z,3.33
2024-03-05T17:45:56.610Z,3.45
2024-03-05T17:48:24.386Z,2.60
2024-03-05T17:50:51.977Z,2.50
2024-03-05T17:53:19.748Z,3.72
2024-03-05T17:55:49.310Z,12.45
2024-03-05T17:58:19.738Z,17.85
2024-03-05T18:00:48.202Z,18.53
2024-03-05T18:03:16.494Z,30.20
2024-03-05T18:05:44.291Z,45.95
2024-03-05T18:08:11.956Z,18.98
2024-03-05T18:10:40.910Z,9.85
2024-03-05T18:13:08.731Z,18.70
2024-03-05T18:15:36.469Z,23.67
2024-03-05T18:18:07.400Z,14.30
2024-03-05T18:20:36.502Z,10.00
2024-03-05T18:23:06.104Z,4.68
2024-03-05T18:25:35.839Z,3.13
2024-03-05T18:28:05.528Z,3.78
2024-03-05T18:30:38.550Z,4.57
2024-03-05T18:33:08.733Z,2.95
2024-03-05T18:35:38.907Z,5.20
2024-03-05T18:38:20.067Z,4.33
2024-03-05T18:40:57.922Z,3.53
2024-03-05T18:43:28.425Z,5.35
2024-03-05T18:45:57.158Z,7.72
2024-03-05T18:48:25.166Z,2.55
2024-03-05T18:50:52.802Z,3.47
2024-03-05T18:53:26.026Z,3.00
2024-03-05T18:55:59.570Z,7.03
2024-03-05T18:58:27.623Z,5.75
2024-03-05T19:00:55.387Z,3.12
2024-03-05T19:03:23.373Z,4.77
2024-03-05T19:05:51.386Z,2.30
2024-03-05T19:08:23.116Z,2.62
2024-03-05T19:10:52.056Z,2.97
2024-03-05T19:13:20.182Z,4.32
2024-03-05T19:15:48.550Z,3.27
2024-03-05T19:18:17.381Z,4.05
2024-03-05T19:20:45.569Z,3.83
2024-03-05T19:23:13.736Z,3.53
2024-03-05T19:25:41.948Z,4.45
2024-03-05T19:28:10.142Z,3.40
2024-03-05T19:30:38.017Z,4.55
2024-03-05T19:33:06.360Z,3.53
2024-03-05T19:35:33.985Z,6.40
2024-03-05T19:38:01.650Z,3.37
2024-03-05T19:40:29.679Z,4.07
2024-03-05T19:42:58.558Z,3.90
2024-03-05T19:45:30.608Z,2.65
2024-03-05T19:47:59.394Z,3.20
2024-03-05T19:50:29.841Z,3.72
2024-03-05T19:52:57.829Z,2.63
2024-03-05T19:55:26.116Z,3.62
2024-03-05T19:57:54.955Z,2.47
2024-03-05T20:00:26.617Z,3.58
2024-03-05T20:02:55.538Z,3.67
2024-03-05T20:05:24.139Z,3.93
2024-03-05T20:07:53.407Z,3.15
2024-03-05T20:10:22.638Z,3.72
2024-03-05T20:12:50.701Z,3.17
2024-03-05T20:15:20.704Z,3.00
2024-03-05T20:17:48.876Z,2.77
2024-03-05T20:20:18.338Z,3.17
2024-03-05T20:22:48.478Z,2.70
2024-03-05T20:25:26.640Z,3.12
2024-03-05T20:27:55.347Z,3.10
2024-03-05T20:30:24.155Z,6.87
2024-03-05T20:32:52.753Z,2.75
2024-03-05T20:35:21.457Z,3.90
2024-03-05T20:37:51.729Z,2.30
2024-03-05T20:40:21.548Z,2.90
2024-03-05T20:42:49.969Z,10.83
2024-03-05T20:45:18.289Z,4.82
2024-03-05T20:47:47.522Z,3.37
2024-03-05T20:50:18.999Z,2.92
2024-03-05T20:52:46.624Z,2.45
2024-03-05T20:55:15.420Z,2.57
2024-03-05T20:57:46.966Z,2.00
2024-03-05T21:00:20.051Z,3.15
2024-03-05T21:02:51.049Z,2.10
2024-03-05T21:05:20.320Z,1.67
2024-03-05T21:07:54.656Z,3.10
2024-03-05T21:10:22.643Z,1.98
2024-03-05T21:12:51.309Z,1.90
2024-03-05T21:15:21.465Z,3.17
2024-03-05T21:17:49.234Z,5.00
2024-03-05T21:20:17.609Z,2.60
2024-03-05T21:22:45.409Z,3.45
2024-03-05T21:25:13.477Z,2.00
2024-03-05T21:27:59.733Z,2.03
2024-03-05T21:30:28.333Z,2.95
2024-03-05T21:32:56.374Z,3.10
2024-03-05T21:35:25.161Z,2.92
2024-03-05T21:37:53.009Z,2.03
2024-03-05T21:40:20.631Z,2.97
2024-03-05T21:42:48.200Z,2.67
2024-03-05T21:45:16.650Z,2.53
2024-03-05T21:47:44.979Z,2.30
2024-03-05T21:50:12.936Z,2.95
2024-03-05T21:52:40.794Z,2.30
2024-03-05T21:55:08.509Z,3.60
2024-03-05T21:57:40.134Z,5.33
2024-03-05T22:00:12.847Z,3.05
2024-03-05T22:02:42.586Z,2.42
2024-03-05T22:05:11.446Z,2.65
2024-03-05T22:07:39.050Z,3.67
2024-03-05T22:10:07.639Z,2.07
2024-03-05T22:12:38.215Z,4.82
2024-03-05T22:15:07.409Z,2.40
2024-03-05T22:17:36.474Z,5.53
2024-03-05T22:20:06.296Z,2.65
2024-03-05T22:22:33.971Z,1.77
2024-03-05T22:25:05.779Z,3.75
2024-03-05T22:27:34.128Z,3.05
2024-03-05T22:30:02.605Z,3.15
2024-03-05T22:32:30.104Z,2.80
2024-03-05T22:34:59.044Z,2.77
2024-03-05T22:37:27.239Z,5.57
2024-03-05T22:39:54.999Z,2.83
2024-03-05T22:42:22.970Z,2.72
2024-03-05T22:44:50.739Z,2.60
2024-03-05T22:47:19.277Z,3.40
2024-03-05T22:49:49.114Z,1.92
2024-03-05T22:52:17.159Z,3.15
2024-03-05T22:54:44.658Z,2.12
2024-03-05T22:57:12.604Z,3.75
2024-03-05T22:59:40.324Z,2.83
2024-03-05T23:02:07.972Z,3.17
2024-03-05T23:04:35.957Z,2.45
2024-03-05T23:07:03.824Z,5.43
2024-03-05T23:09:31.344Z,4.97
2024-03-05T23:11:58.898Z,3.20
2024-03-05T23:14:26.725Z,1.80
2024-03-05T23:16:54.218Z,3.58
2024-03-05T23:19:21.863Z,2.62
2024-03-05T23:21:49.600Z,4.12
2024-03-05T23:24:17.121Z,3.57
2024-03-05T23:26:45.233Z,2.75
2024-03-05T23:29:13.169Z,2.50
2024-03-05T23:31:40.730Z,3.45
2024-03-05T23:34:08.670Z,5.85
2024-03-05T23:36:36.525Z,3.23
2024-03-05T23:39:04.045Z,3.00
2024-03-05T23:41:32.475Z,3.40
2024-03-05T23:44:00.768Z,2.15
2024-03-05T23:46:28.402Z,10.27
2024-03-05T23:48:55.982Z,2.03
2024-03-05T23:51:23.786Z,2.20
2024-03-05T23:53:51.258Z,2.28
2024-03-05T23:56:19.005Z,2.25
2024-03-05T23:58:46.854Z,2.50
